ADDS METAR Data INFO
IDs: Format: Raw Decoded Include TAF

Data at: 0024 UTC 11 Dec 2017

KUNO 102353Z AUTO 29007KT 10SM CLR 10/M06 A3013 RMK AO2 SLP209 T01001056 10156 20100 53017
KUNO 102253Z AUTO 28008KT 10SM CLR 12/M06 A3010 RMK AO2 SLP198 T01221061
KUNO 102153Z AUTO 27008KT 10SM CLR 14/M06 A3008 RMK AO2 SLP190 T01441061
KUNO 102053Z AUTO 27009KT 10SM CLR 15/M06 A3008 RMK AO2 SLP190 T01501056 56012
KUNO 101953Z AUTO 27012G20KT 10SM CLR 14/M05 A3008 RMK AO2 SLP191 T01441050
KUNO 101853Z AUTO 27011G18KT 10SM CLR 13/M05 A3009 RMK AO2 SLP196 T01281050
KUNO 101753Z AUTO 26010KT 10SM CLR 10/M05 A3011 RMK AO2 SLP203 T01001050 10100 21044 56014
KUNO 101653Z AUTO 26011G22KT 10SM CLR 07/M05 A3013 RMK AO2 SLP210 T00721050
KUNO 101553Z AUTO 23010G17KT 10SM CLR 05/M06 A3014 RMK AO2 SLP214 T00501056
KUNO 101453Z AUTO 23008KT 10SM CLR 01/M06 A3015 RMK AO2 SLP220 T00111056 58010
KUNO 101353Z AUTO 23005KT 10SM CLR M03/M07 A3017 RMK AO2 SLP226 T10281067
KUNO 101253Z AUTO 23007KT 10SM CLR M04/M07 A3018 RMK AO2 SLP230 T10391072
KUNO 101153Z AUTO 23007KT 10SM CLR M04/M08 A3018 RMK AO2 SLP233 T10391083 11039 21061 56013
KUNO 101053Z AUTO 21003KT 10SM CLR M04/M09 A3019 RMK AO2 SLP233 T10391089
KUNO 100953Z AUTO 24004KT 10SM CLR M04/M09 A3021 RMK AO2 SLP238 T10441089
KUNO 100853Z AUTO 23005KT 10SM CLR M04/M09 A3022 RMK AO2 SLP244 T10441089 55002
KUNO 100753Z AUTO 00000KT 10SM CLR M06/M09 A3022 RMK AO2 SLP244 T10561089
KUNO 100653Z AUTO 00000KT 10SM CLR M04/M09 A3022 RMK AO2 SLP242 T10441089
KUNO 100553Z AUTO 26004KT 10SM CLR M04/M09 A3023 RMK AO2 SLP247 T10391089 10011 21044 400611044 51006
KUNO 100453Z AUTO 00000KT 10SM CLR M03/M08 A3022 RMK AO2 SLP244 T10281083
KUNO 100353Z AUTO 31004KT 10SM CLR M04/M09 A3023 RMK AO2 SLP246 T10391089
KUNO 100253Z AUTO 29004KT 10SM CLR M01/M08 A3021 RMK AO2 SLP240 T10111083 51014
KUNO 100153Z AUTO 30004KT 10SM CLR M01/M08 A3021 RMK AO2 SLP239 T10111083
KUNO 100053Z AUTO 31005KT 10SM CLR 01/M08 A3019 RMK AO2 SLP233 T00061078
KUNO 092353Z AUTO 30005KT 10SM CLR 01/M08 A3017 RMK AO2 SLP227 T00061078 10061 20006 51028
KUNO 092253Z AUTO 31007KT 10SM CLR 03/M08 A3015 RMK AO2 SLP218 T00331078
KUNO 092153Z AUTO 30012G22KT 10SM CLR 05/M08 A3012 RMK AO2 SLP207 T00501078
KUNO 092053Z AUTO 31012G21KT 10SM CLR 06/M08 A3009 RMK AO2 SLP196 T00561083 53013
KUNO 091953Z AUTO 31013G19KT 10SM CLR 05/M08 A3006 RMK AO2 SLP189 T00501078
KUNO 091853Z AUTO 32012G21KT 10SM FEW036 04/M06 A3005 RMK AO2 SLP184 T00441061
KUNO 091753Z AUTO 31012G22KT 10SM SCT028 03/M06 A3005 RMK AO2 SLP184 T00331056 10039 21039 51019
KUNO 091653Z AUTO 32014G23KT 10SM BKN026 OVC031 02/M05 A3004 RMK AO2 SLP184 T00221050
KUNO 091553Z AUTO 33013G24KT 10SM BKN022 OVC028 01/M04 A3003 RMK AO2 SLP177 T00111044
KUNO 091525Z AUTO 33014G24KT 10SM BKN023 01/M04 A3001 RMK AO2 T00111044
KUNO 091453Z AUTO 31009G16KT 10SM CLR 01/M04 A2999 RMK AO2 SLP165 T00061044 53018
KUNO 091353Z AUTO 28008KT 10SM CLR M02/M06 A2997 RMK AO2 SLP158 T10171056
KUNO 091253Z AUTO 26009KT 10SM CLR M03/M07 A2994 RMK AO2 SLP148 T10331072